Portada
METAR-TAF:

METAR-TAF

Aeroports :

Capo Mele

Andora, Itàlia

latitud: 43-57N, longitud: 008-10E, altitud: 220 m

Observació

L'informe es va fer fa 36 minuts, a les 14:55 UTC
Vent 9 kt del Nord
Temperatura 14°C
Humitat 28%
Pressió 1016 hPa
Visibilitat 10 km o més
sense núvols per sota de 1500 mi sense presència de cumulonimbus.

METAR: LIMU 101455Z 01009KT CAVOK 14/M04 Q1016 RMK SKC QUK 3 QUL 2 E VIS MAR 40 KM VIS MIN 9999

Hora: 16:31 (15:31 UTC)


TAF: manca

Observacions i pronòstics meteorològics de més de 4000 aeroports (METAR i TAF).

Les estacions disponibles són els punts grocs i vermells al mapa.

Posi el ratolí al punt desitjat per veure el nom de l'estació.

Feu clic per veure les observacions i els pronòstics meteorològics.

Per canviar el mapa: feu clic els botons verds amb una creu de color negre per apropar; al botó verd amb un guió per allunyar la imatge; o en les fletxes verdes per a mapes adjacents.


METAR-TAF: